Time;durP1;ratioP1;P1;durP2;ratioP2;P2;SDS_P1;SDS_P2;PMS_P1;PMS_P2;Temp;Humidity;BMP_temperature;BMP_pressure;BME280_temperature;BME280_humidity;BME280_pressure;Samples;Min_cycle;Max_cycle;Signal;HPM_P1;HPM_P2
2022/08/06 00:00:09;;;;;;;;;21.00;20.33;;;;;21.98;62.42;99278.56;6285473;20;3575372;-59
2022/08/06 00:02:38;;;;;;;;;20.50;18.50;;;;;21.85;63.22;99279.13;6284621;20;2830456;-59
2022/08/06 00:05:10;;;;;;;;;20.00;19.00;;;;;21.99;63.01;99280.31;6288176;20;3577349;-60
2022/08/06 00:07:46;;;;;;;;;19.67;19.33;;;;;21.78;62.91;99278.16;6281108;20;2839926;-59
2022/08/06 00:10:18;;;;;;;;;19.00;17.50;;;;;21.83;62.85;99281.22;6317060;20;2829436;-59
2022/08/06 00:13:00;;;;;;;;;15.33;15.33;;;;;21.55;63.87;99287.09;6286457;20;2492191;-60
2022/08/06 00:15:34;;;;;;;;;15.67;15.67;;;;;21.55;63.65;99283.53;6320787;20;3551416;-59
2022/08/06 00:18:23;;;;;;;;;18.00;18.00;;;;;21.77;63.06;99280.03;6322405;20;3579467;-60
2022/08/06 00:20:52;;;;;;;;;15.50;15.50;;;;;21.68;63.38;99278.38;6286538;20;2816982;-60
2022/08/06 00:23:21;;;;;;;;;14.50;14.50;;;;;21.78;63.15;99283.63;6286585;20;2808749;-60
2022/08/06 00:25:53;;;;;;;;;17.00;17.00;;;;;21.72;63.06;99279.69;6284176;20;2828447;-60
2022/08/06 00:28:25;;;;;;;;;15.00;15.00;;;;;21.68;63.44;99278.38;6283202;20;3537918;-60
2022/08/06 00:31:03;;;;;;;;;15.50;14.00;;;;;21.54;63.75;99288.16;6284431;20;2484024;-59
2022/08/06 00:33:41;;;;;;;;;21.50;18.00;;;;;21.35;63.90;99288.47;6283538;20;2837870;-60
2022/08/06 00:36:19;;;;;;;;;14.67;14.67;;;;;21.39;63.66;99298.06;6284489;20;3535686;-59
2022/08/06 00:38:52;;;;;;;;;17.00;13.50;;;;;21.36;64.31;99292.94;6285603;20;2487847;-59
2022/08/06 00:41:22;;;;;;;;;15.50;14.50;;;;;21.18;65.03;99298.59;6287368;20;2491937;-59
2022/08/06 00:43:55;;;;;;;;;16.00;15.67;;;;;21.00;64.96;99287.84;6286711;20;3549597;-60
2022/08/06 00:46:25;;;;;;;;;14.50;14.00;;;;;21.02;65.50;99294.00;6316360;20;2796223;-59
2022/08/06 00:48:54;;;;;;;;;17.50;16.50;;;;;21.29;64.31;99294.63;6285629;20;2839909;-60
2022/08/06 00:51:24;;;;;;;;;19.00;16.00;;;;;21.73;63.10;99291.50;6281169;20;2829468;-59
2022/08/06 00:54:13;;;;;;;;;16.00;15.00;;;;;21.91;62.04;99294.84;6284161;20;2815975;-59
2022/08/06 00:56:44;;;;;;;;;15.00;15.00;;;;;21.78;62.39;99300.03;6284201;20;2483615;-59
2022/08/06 00:59:15;;;;;;;;;16.33;15.00;;;;;21.45;63.46;99294.63;6286226;20;3536746;-59
2022/08/06 01:01:43;;;;;;;;;16.50;14.00;;;;;21.58;63.84;99300.41;6287552;20;2492034;-59
2022/08/06 01:04:19;;;;;;;;;14.00;14.00;;;;;21.38;64.57;99289.03;6287117;20;2492088;-59
2022/08/06 01:06:47;;;;;;;;;16.33;14.33;;;;;21.40;63.91;99291.56;6314151;20;3547215;-59
2022/08/06 01:09:26;;;;;;;;;15.00;14.67;;;;;21.85;62.51;99288.22;6282143;20;3544017;-59
2022/08/06 01:11:59;;;;;;;;;17.00;16.00;;;;;21.51;63.34;99288.47;6282948;20;3566873;-60
2022/08/06 01:14:33;;;;;;;;;17.50;13.50;;;;;21.47;63.41;99292.59;6282086;20;2816974;-59
2022/08/06 01:18:19;;;;;;;;;19.00;19.00;;;;;21.53;63.81;99294.63;6281741;20;2489825;-60
2022/08/06 01:22:10;;;;;;;;;17.67;15.00;;;;;21.11;65.02;99279.28;6280569;20;3548270;-60
2022/08/06 01:25:03;;;;;;;;;15.67;15.67;;;;;20.68;66.62;99286.81;6282071;20;3545013;-59
2022/08/06 01:28:12;;;;;;;;;15.50;15.50;;;;;20.73;67.08;99289.03;6280372;20;2819402;-59
2022/08/06 01:31:07;;;;;;;;;16.00;15.67;;;;;20.69;67.21;99291.22;6281886;20;3552375;-59
2022/08/06 01:33:44;;;;;;;;;17.00;16.00;;;;;20.61;67.16;99291.22;6312846;20;3552392;-59
2022/08/06 01:36:47;;;;;;;;;15.00;15.00;;;;;20.25;67.97;99291.47;6280248;20;2809652;-59
2022/08/06 01:39:20;;;;;;;;;17.00;16.00;;;;;19.86;69.99;99283.00;6282484;20;3440964;-59
2022/08/06 01:42:11;;;;;;;;;18.50;18.00;;;;;20.50;67.90;99283.34;6308216;20;2839951;-59
2022/08/06 01:44:49;;;;;;;;;15.67;15.67;;;;;20.97;66.05;99285.47;6280058;20;3551276;-59
2022/08/06 01:47:20;;;;;;;;;15.00;14.00;;;;;20.76;66.71;99286.81;6280746;20;3535649;-50
2022/08/06 01:49:57;;;;;;;;;11.00;11.00;;;;;20.67;66.53;99285.13;6279787;20;3526305;-51
2022/08/06 01:52:39;;;;;;;;;16.50;15.50;;;;;20.97;65.92;99285.47;6279559;20;2813924;-55
2022/08/06 01:55:16;;;;;;;;;15.50;15.50;;;;;20.73;67.10;99278.13;6280471;20;2817062;-55
2022/08/06 01:57:57;;;;;;;;;16.50;15.00;;;;;20.79;66.81;99283.75;6279631;20;2806537;-55
2022/08/06 02:00:51;;;;;;;;;17.50;16.50;;;;;20.81;67.02;99291.78;6280490;20;2485695;-54
2022/08/06 02:03:30;;;;;;;;;19.33;17.33;;;;;20.63;66.88;99288.34;6282285;20;3558709;-56
2022/08/06 02:06:51;;;;;;;;;17.67;14.67;;;;;21.11;65.25;99276.56;6315538;20;3552295;-52
2022/08/06 02:09:23;;;;;;;;;14.00;14.00;;;;;20.99;65.50;99275.22;6319615;20;2686711;-54
2022/08/06 02:12:13;;;;;;;;;16.50;16.50;;;;;20.40;67.32;99280.75;6276224;20;2483603;-55
2022/08/06 02:15:30;;;;;;;;;14.50;14.50;;;;;20.01;68.78;99284.09;6279460;20;2483651;-56
2022/08/06 02:18:21;;;;;;;;;18.67;17.33;;;;;20.45;67.72;99278.38;6286598;20;3567969;-56
2022/08/06 02:21:15;;;;;;;;;16.00;16.00;;;;;19.93;69.59;99279.47;6315701;20;3549254;-56
2022/08/06 02:24:07;;;;;;;;;17.33;16.33;;;;;19.65;70.28;99277.94;6315064;20;3563153;-56
2022/08/06 02:26:40;;;;;;;;;17.50;15.50;;;;;20.32;67.78;99273.41;6309784;20;2824220;-56
2022/08/06 02:29:16;;;;;;;;;15.50;15.50;;;;;20.36;67.69;99279.41;6282331;20;2816905;-56
2022/08/06 02:31:46;;;;;;;;;17.50;17.00;;;;;20.05;68.72;99269.09;6276160;20;2494051;-57
2022/08/06 02:34:21;;;;;;;;;14.00;14.00;;;;;19.79;69.96;99280.06;6280269;20;2810681;-56
2022/08/06 02:37:23;;;;;;;;;16.50;16.50;;;;;19.63;70.57;99274.50;6277559;20;2496077;-56
2022/08/06 02:40:27;;;;;;;;;16.00;15.00;;;;;19.73;69.95;99275.28;6281378;20;2806524;-55
2022/08/06 02:43:06;;;;;;;;;15.33;15.33;;;;;19.71;70.17;99274.59;6283223;20;3554398;-55
2022/08/06 02:45:55;;;;;;;;;21.00;16.67;;;;;19.55;70.86;99271.75;6312958;20;3564991;-55
2022/08/06 02:48:57;;;;;;;;;14.67;12.67;;;;;20.01;69.12;99266.84;6307378;20;3521356;-56
2022/08/06 02:51:38;;;;;;;;;15.67;15.67;;;;;19.81;69.77;99267.13;6320378;20;3552353;-56
2022/08/06 02:54:56;;;;;;;;;18.00;16.00;;;;;20.00;69.30;99263.28;6319045;20;3557578;-58
2022/08/06 02:57:45;;;;;;;;;16.00;16.00;;;;;20.02;69.49;99266.72;6318193;20;3515921;-57
2022/08/06 03:00:20;;;;;;;;;16.00;16.00;;;;;19.92;69.51;99276.88;6316405;20;2831615;-54
2022/08/06 03:03:00;;;;;;;;;19.50;19.00;;;;;19.69;70.41;99277.47;6282602;20;2491944;-56
2022/08/06 03:05:30;;;;;;;;;16.00;16.00;;;;;19.72;70.71;99273.56;6284296;20;2823151;-57
2022/08/06 03:08:24;;;;;;;;;19.33;18.33;;;;;19.65;70.56;99273.34;6286811;20;2491928;-56
2022/08/06 03:10:57;;;;;;;;;18.00;15.00;;;;;19.47;70.86;99275.28;6313884;20;3550261;-56
2022/08/06 03:13:28;;;;;;;;;18.00;17.00;;;;;19.35;70.93;99277.41;6316991;20;2844043;-54
2022/08/06 03:16:06;;;;;;;;;16.50;16.00;;;;;19.41;70.94;99275.94;6286449;20;2829514;-56
2022/08/06 03:18:54;;;;;;;;;14.33;14.33;;;;;19.44;71.20;99268.28;6290430;20;3525297;-57
2022/08/06 03:21:45;;;;;;;;;17.00;15.67;;;;;19.31;72.51;99276.03;6284110;20;3535703;-57
2022/08/06 03:24:25;;;;;;;;;17.00;17.00;;;;;19.37;71.68;99272.66;6284229;20;2500314;-57
2022/08/06 03:26:58;;;;;;;;;16.67;15.00;;;;;19.30;71.70;99271.63;6282432;20;3546250;-57
2022/08/06 03:29:28;;;;;;;;;20.50;20.50;;;;;19.36;71.73;99275.56;6286171;20;2837744;-58
2022/08/06 03:31:59;;;;;;;;;23.50;17.00;;;;;19.35;71.76;99277.41;6282686;20;2839939;-57
2022/08/06 03:34:48;;;;;;;;;16.50;15.00;;;;;19.29;72.19;99273.47;6284595;20;2810672;-58
2022/08/06 03:37:21;;;;;;;;;20.50;17.50;;;;;19.34;71.84;99273.00;6284758;20;2828394;-57
2022/08/06 03:40:11;;;;;;;;;18.67;17.67;;;;;19.36;72.29;99278.28;6288856;20;3571053;-59
2022/08/06 03:42:40;;;;;;;;;20.50;19.00;;;;;19.36;72.14;99270.97;6282418;20;2833607;-60
2022/08/06 03:45:11;;;;;;;;;19.50;18.00;;;;;19.42;71.46;99277.63;6282231;20;2487775;-60
2022/08/06 03:48:04;;;;;;;;;18.00;16.00;;;;;19.38;71.45;99277.13;6287241;20;2834630;-59
2022/08/06 03:50:44;;;;;;;;;20.00;17.00;;;;;19.44;71.15;99275.63;6285266;20;2832832;-59
2022/08/06 03:53:25;;;;;;;;;20.50;19.50;;;;;19.24;72.02;99270.38;6282013;20;2834682;-60
2022/08/06 03:55:59;;;;;;;;;20.00;17.00;;;;;19.81;69.88;99272.59;6283818;20;2829448;-59
2022/08/06 03:58:29;;;;;;;;;22.00;18.50;;;;;19.50;71.03;99278.53;6283686;20;2487830;-59
2022/08/06 04:01:08;;;;;;;;;19.50;18.00;;;;;19.55;71.01;99279.91;6282615;20;2483743;-59
2022/08/06 04:03:38;;;;;;;;;18.00;15.00;;;;;19.66;70.28;99279.63;6284593;20;2819126;-60
2022/08/06 04:06:10;;;;;;;;;19.33;19.33;;;;;19.61;70.97;99282.84;6286845;20;3567928;-59
2022/08/06 04:08:48;;;;;;;;;21.00;19.50;;;;;19.75;70.41;99284.16;6283172;20;2829439;-60
2022/08/06 04:11:19;;;;;;;;;17.50;16.00;;;;;19.86;69.88;99285.72;6281937;20;2828441;-59
2022/08/06 04:14:09;;;;;;;;;21.50;18.50;;;;;20.01;69.77;99291.38;6285667;20;2840002;-59
2022/08/06 04:16:40;;;;;;;;;21.00;17.50;;;;;20.22;68.60;99291.81;6286012;20;2832672;-60
2022/08/06 04:19:11;;;;;;;;;19.67;15.33;;;;;20.26;69.38;99298.63;6285295;20;3558619;-59
2022/08/06 04:21:43;;;;;;;;;20.00;19.00;;;;;20.44;67.79;99301.25;6312443;20;2839872;-59
2022/08/06 04:24:32;;;;;;;;;22.50;16.50;;;;;20.91;66.42;99302.53;6282096;20;2831512;-59
2022/08/06 04:27:05;;;;;;;;;23.50;18.00;;;;;20.86;66.49;99300.31;6283951;20;1929435;-59
2022/08/06 04:29:42;;;;;;;;;21.00;18.00;;;;;21.07;65.49;99299.78;6285928;20;3568056;-59
2022/08/06 04:32:27;;;;;;;;;20.00;16.00;;;;;20.77;67.35;99299.44;6281518;20;2826404;-59
2022/08/06 04:35:06;;;;;;;;;17.50;17.00;;;;;20.88;66.74;99302.84;6283286;20;2829433;-59
2022/08/06 04:37:56;;;;;;;;;18.00;18.00;;;;;20.88;67.49;99305.56;6281608;20;2496129;-59
2022/08/06 04:40:29;;;;;;;;;20.00;20.00;;;;;21.08;66.35;99304.22;6313221;20;2830571;-59
2022/08/06 04:43:13;;;;;;;;;17.00;17.00;;;;;21.38;65.89;99315.47;6284840;20;2828498;-59
2022/08/06 04:45:44;;;;;;;;;19.67;19.67;;;;;21.37;65.87;99320.06;6284566;20;2840923;-59
2022/08/06 04:48:34;;;;;;;;;17.00;17.00;;;;;21.48;65.92;99318.88;6316700;20;3562732;-59
2022/08/06 04:51:08;;;;;;;;;21.00;19.00;;;;;21.65;65.16;99334.22;6281485;20;2841927;-59
2022/08/06 04:53:57;;;;;;;;;20.67;20.33;;;;;21.85;65.32;99322.88;6317559;20;3576301;-59
2022/08/06 04:56:26;;;;;;;;;19.00;19.00;;;;;21.89;65.08;99322.34;6281143;20;3557799;-57
2022/08/06 04:59:06;;;;;;;;;21.67;21.67;;;;;22.17;63.63;99330.13;6320734;20;3575304;-57
2022/08/06 05:01:36;;;;;;;;;21.00;19.00;;;;;22.34;63.22;99322.69;6281253;20;2833636;-55
2022/08/06 05:04:25;;;;;;;;;21.00;21.00;;;;;22.52;62.33;99328.75;6282124;20;2837821;-57
2022/08/06 05:07:18;;;;;;;;;19.50;19.50;;;;;22.57;61.68;99330.97;6278035;20;2829462;-57
2022/08/06 05:09:51;;;;;;;;;18.33;18.33;;;;;22.84;60.63;99335.03;6284694;20;3573245;-56
2022/08/06 05:12:48;;;;;;;;;20.67;19.33;;;;;22.99;59.94;99330.50;6274507;20;3578512;-55
2022/08/06 05:15:33;;;;;;;;;16.50;16.50;;;;;23.09;59.12;99334.88;6279596;20;2825519;-54
2022/08/06 05:18:49;;;;;;;;;17.67;17.67;;;;;23.45;58.18;99335.06;6283348;20;3575314;-56
2022/08/06 05:21:40;;;;;;;;;17.00;17.00;;;;;23.82;56.93;99339.66;6281516;20;2835719;-56
2022/08/06 05:24:30;;;;;;;;;21.33;19.00;;;;;24.02;55.84;99339.13;6313212;20;3581512;-54
2022/08/06 05:27:19;;;;;;;;;18.33;18.33;;;;;24.07;56.18;99345.75;6316349;20;3573142;-55
2022/08/06 05:29:51;;;;;;;;;22.00;19.33;;;;;24.53;55.59;99350.16;6283435;20;3563906;-56
2022/08/06 05:32:22;;;;;;;;;19.67;18.00;;;;;25.09;53.41;99353.09;6282132;20;3569054;-51
2022/08/06 05:34:52;;;;;;;;;15.00;15.00;;;;;25.24;52.95;99354.94;6284431;20;3550267;-55
2022/08/06 05:37:21;;;;;;;;;17.50;17.50;;;;;25.14;53.48;99355.22;6314034;20;2820130;-55
2022/08/06 05:40:10;;;;;;;;;17.00;17.00;;;;;25.06;53.81;99347.97;6283817;20;3564799;-56
2022/08/06 05:42:39;;;;;;;;;17.00;17.00;;;;;25.04;53.56;99350.09;6281286;20;2827487;-56
2022/08/06 05:45:24;;;;;;;;;19.67;18.00;;;;;25.62;52.24;99353.56;6285872;20;3564816;-53
2022/08/06 05:47:59;;;;;;;;;18.50;18.50;;;;;25.36;53.19;99348.72;6280495;20;2837793;-57
2022/08/06 05:50:36;;;;;;;;;18.00;16.67;;;;;25.50;53.06;99343.31;6280730;20;2836209;-54
2022/08/06 05:53:33;;;;;;;;;15.67;15.67;;;;;25.56;53.09;99346.09;6314748;20;3555474;-57
2022/08/06 05:56:31;;;;;;;;;17.33;17.33;;;;;25.50;53.27;99338.66;6314562;20;3572105;-57
2022/08/06 05:59:26;;;;;;;;;14.00;14.00;;;;;25.63;52.41;99347.00;6283377;20;3536779;-55
2022/08/06 06:02:16;;;;;;;;;14.00;14.00;;;;;25.78;52.92;99349.66;6314321;20;3541887;-57
2022/08/06 06:04:48;;;;;;;;;17.33;16.67;;;;;26.06;52.83;99346.88;6315848;20;3564847;-56
2022/08/06 06:07:38;;;;;;;;;17.00;16.00;;;;;26.41;50.50;99348.75;6276889;20;2827508;-57
2022/08/06 06:10:28;;;;;;;;;20.00;17.50;;;;;26.44;49.66;99345.59;6281234;20;2833639;-54
2022/08/06 06:13:04;;;;;;;;;17.67;16.67;;;;;26.81;49.20;99343.44;6282942;20;3562724;-55
2022/08/06 06:16:28;;;;;;;;;18.00;17.00;;;;;26.89;48.51;99344.06;6280930;20;3562858;-56
2022/08/06 06:19:49;;;;;;;;;16.00;14.67;;;;;26.70;49.84;99350.41;6317368;20;3546079;-54
2022/08/06 06:22:35;;;;;;;;;15.33;14.00;;;;;27.07;47.91;99357.25;6310384;20;3537900;-55
2022/08/06 06:25:25;;;;;;;;;15.00;14.00;;;;;27.18;47.55;99352.22;6313383;20;2810759;-57
2022/08/06 06:28:22;;;;;;;;;16.00;16.00;;;;;27.09;47.86;99360.66;6287970;20;2824220;-58
2022/08/06 06:31:27;;;;;;;;;13.33;13.00;;;;;27.58;46.35;99359.44;6291122;20;3534939;-57
2022/08/06 06:34:53;;;;;;;;;15.33;15.33;;;;;27.94;45.80;99357.31;6319289;20;3554509;-55
2022/08/06 06:37:47;;;;;;;;;13.00;11.00;;;;;27.86;45.46;99354.75;6280766;20;3520053;-54
2022/08/06 06:40:44;;;;;;;;;14.00;14.00;;;;;28.34;44.41;99365.47;6286735;20;2483592;-59
2022/08/06 06:44:01;;;;;;;;;15.00;15.00;;;;;28.64;43.33;99372.16;6319690;20;3531475;-59
2022/08/06 06:46:47;;;;;;;;;16.00;13.67;;;;;29.01;42.64;99375.16;6316747;20;2483663;-58
2022/08/06 06:49:48;;;;;;;;;9.33;9.33;;;;;29.71;40.80;99377.03;6316323;20;2756612;-58
2022/08/06 06:52:40;;;;;;;;;18.00;14.00;;;;;30.37;39.25;99373.59;6317741;20;2814828;-54
2022/08/06 06:55:32;;;;;;;;;17.00;14.00;;;;;31.03;38.21;99387.72;6284732;20;2816921;-53
2022/08/06 06:58:31;;;;;;;;;15.33;14.33;;;;;31.34;37.38;99371.91;6288811;20;2483579;-51
2022/08/06 07:01:02;;;;;;;;;16.00;15.00;;;;;31.65;37.09;99377.16;6317896;20;3421074;-51
2022/08/06 07:03:52;;;;;;;;;17.67;14.00;;;;;31.71;36.69;99384.53;6315255;20;3550302;-52
2022/08/06 07:06:24;;;;;;;;;13.50;13.50;;;;;32.09;35.73;99383.22;6313633;20;2805478;-54
2022/08/06 07:09:18;;;;;;;;;15.00;13.00;;;;;31.89;36.25;99379.97;6284501;20;2806938;-50
2022/08/06 07:12:09;;;;;;;;;13.00;13.00;;;;;32.07;35.60;99388.19;6289460;20;2798220;-48
2022/08/06 07:14:50;;;;;;;;;13.00;13.00;;;;;32.49;36.10;99384.41;6285401;20;2483721;-53
2022/08/06 07:17:31;;;;;;;;;9.67;9.67;;;;;32.57;36.16;99389.56;6319000;20;2779540;-54
2022/08/06 07:20:28;;;;;;;;;12.00;12.00;;;;;32.89;35.14;99389.97;6320701;20;2483687;-54
2022/08/06 07:23:03;;;;;;;;;11.00;11.00;;;;;32.93;34.54;99393.94;6317943;20;2798248;-57
2022/08/06 07:25:54;;;;;;;;;12.33;12.33;;;;;32.91;35.15;99396.13;6287355;20;2483590;-55
2022/08/06 07:28:29;;;;;;;;;12.67;12.33;;;;;33.29;34.40;99396.59;6322044;20;3521285;-53
2022/08/06 07:31:06;;;;;;;;;12.67;10.00;;;;;33.43;33.14;99397.97;6309304;20;3505446;-53
2022/08/06 07:33:43;;;;;;;;;11.33;10.00;;;;;33.87;32.46;99403.75;6317967;20;2483608;-60
2022/08/06 07:36:37;;;;;;;;;13.00;10.00;;;;;33.53;32.07;99394.53;6319388;20;2483675;-60
2022/08/06 07:39:13;;;;;;;;;13.00;13.00;;;;;33.55;31.87;99400.72;6315818;20;3526363;-60
2022/08/06 07:41:46;;;;;;;;;13.33;11.00;;;;;34.28;30.87;99396.03;6284498;20;3514822;-61
2022/08/06 07:44:48;;;;;;;;;12.00;11.00;;;;;34.26;31.65;99398.25;6284155;20;2662853;-60
2022/08/06 07:47:36;;;;;;;;;11.00;11.00;;;;;34.55;29.96;99401.69;6313114;20;2795028;-60
2022/08/06 07:50:27;;;;;;;;;11.67;10.00;;;;;34.75;29.64;99401.97;6286252;20;3497253;-60
2022/08/06 07:52:57;;;;;;;;;13.00;11.00;;;;;35.21;29.16;99398.91;6318761;20;2484046;-60
2022/08/06 07:55:29;;;;;;;;;11.00;10.00;;;;;35.03;28.54;99402.88;6318569;20;2483613;-59
2022/08/06 07:58:08;;;;;;;;;11.33;9.33;;;;;35.17;28.11;99389.38;6311784;20;3504448;-57
2022/08/06 08:00:39;;;;;;;;;15.33;12.67;;;;;34.92;28.70;99401.06;6319607;20;2487844;-59
2022/08/06 08:06:26;;;;;;;;;12.00;10.33;;;;;34.74;27.56;99402.25;6312314;20;2483687;-59
2022/08/06 08:09:15;;;;;;;;;11.33;9.67;;;;;34.64;27.98;99397.38;6315358;20;3489832;-60
2022/08/06 08:11:57;;;;;;;;;11.00;10.00;;;;;35.00;28.32;99408.13;6314147;20;3510671;-58
2022/08/06 08:14:48;;;;;;;;;10.00;10.00;;;;;35.81;27.22;99408.13;6280855;20;3500250;-61
2022/08/06 08:17:18;;;;;;;;;10.00;9.00;;;;;35.39;27.98;99406.06;6312584;20;3482592;-60
2022/08/06 08:20:06;;;;;;;;;8.33;8.33;;;;;35.24;28.23;99409.53;6319592;20;2739819;-61
2022/08/06 08:22:45;;;;;;;;;9.67;9.67;;;;;35.09;27.88;99413.00;6320622;20;2765985;-61
2022/08/06 08:25:18;;;;;;;;;14.33;11.33;;;;;34.70;28.74;99407.47;6314958;20;3512795;-54
2022/08/06 08:28:09;;;;;;;;;10.00;8.67;;;;;34.89;28.48;99401.56;6288125;20;2773175;-54
2022/08/06 08:30:44;;;;;;;;;11.67;9.00;;;;;35.86;26.36;99404.53;6312334;20;3492004;-55
2022/08/06 08:33:19;;;;;;;;;12.33;9.00;;;;;35.76;26.38;99399.72;6317950;20;3495083;-57
2022/08/06 08:35:49;;;;;;;;;11.33;10.33;;;;;35.46;26.35;99403.88;6314577;20;3508637;-54
2022/08/06 08:38:34;;;;;;;;;11.33;9.00;;;;;36.12;26.90;99411.19;6285572;20;3480492;-55
2022/08/06 08:41:29;;;;;;;;;9.00;9.00;;;;;35.99;25.78;99409.66;6316022;20;3467926;-56
2022/08/06 08:44:27;;;;;;;;;9.00;9.00;;;;;36.05;26.26;99415.03;6320271;20;2747142;-55
2022/08/06 08:47:00;;;;;;;;;10.00;9.00;;;;;36.17;25.31;99412.06;6314254;20;3485798;-54
2022/08/06 08:49:50;;;;;;;;;11.33;8.67;;;;;36.17;25.75;99412.06;6320872;20;2757570;-57
2022/08/06 08:52:33;;;;;;;;;11.67;10.33;;;;;35.97;26.05;99409.06;6318964;20;3523144;-52
2022/08/06 08:55:06;;;;;;;;;8.00;8.00;;;;;36.04;24.68;99406.91;6315100;20;2746555;-55
2022/08/06 08:57:56;;;;;;;;;6.00;6.00;;;;;35.93;25.03;99411.56;6318165;20;2735659;-55
2022/08/06 09:00:45;;;;;;;;;10.67;9.00;;;;;36.43;25.21;99403.81;6314081;20;3484601;-51
2022/08/06 09:03:22;;;;;;;;;9.00;9.00;;;;;36.65;24.57;99412.06;6321455;20;2748572;-52
2022/08/06 09:05:51;;;;;;;;;9.00;8.00;;;;;37.19;24.56;99403.31;6317101;20;2736729;-54
2022/08/06 09:08:21;;;;;;;;;11.00;9.33;;;;;36.76;24.86;99416.59;6324806;20;2771195;-55
2022/08/06 09:11:10;;;;;;;;;11.33;11.33;;;;;37.10;24.22;99417.03;6312618;20;3523299;-57
2022/08/06 09:14:05;;;;;;;;;9.00;9.00;;;;;37.07;24.17;99408.31;6280982;20;3467083;-54
2022/08/06 09:16:37;;;;;;;;;10.00;10.00;;;;;37.17;24.00;99411.16;6316037;20;2483718;-58
2022/08/06 09:19:17;;;;;;;;;10.00;9.67;;;;;36.07;24.66;99405.56;6314820;20;3495261;-55
2022/08/06 09:21:47;;;;;;;;;11.33;10.33;;;;;36.60;25.07;99415.69;6313983;20;3516104;-57
2022/08/06 09:24:18;;;;;;;;;9.67;9.00;;;;;36.42;25.06;99402.97;6284522;20;3476533;-58
2022/08/06 09:27:10;;;;;;;;;13.00;10.00;;;;;35.94;25.90;99404.91;6315509;20;3520066;-59
2022/08/06 09:30:07;;;;;;;;;11.67;10.00;;;;;36.14;25.19;99400.56;6316570;20;3502331;-53
2022/08/06 09:32:57;;;;;;;;;10.67;10.67;;;;;36.44;25.41;99411.09;6282733;20;3515893;-57
2022/08/06 09:35:59;;;;;;;;;10.33;10.33;;;;;37.35;24.54;99407.84;6314401;20;2483613;-55
2022/08/06 09:38:29;;;;;;;;;16.33;13.67;;;;;37.53;23.87;99412.09;6316674;20;3537830;-51
2022/08/06 09:41:10;;;;;;;;;11.50;11.00;;;;;37.22;25.13;99410.34;6314890;20;2798164;-51
2022/08/06 09:43:50;;;;;;;;;14.00;14.00;;;;;36.98;24.84;99407.16;6281063;20;2808606;-52
2022/08/06 09:46:48;;;;;;;;;7.00;7.00;;;;;37.21;24.96;99409.50;6294260;20;2733619;-57
2022/08/06 09:49:19;;;;;;;;;10.67;8.67;;;;;37.28;24.98;99400.81;6313984;20;3486716;-52
2022/08/06 09:52:14;;;;;;;;;5.00;4.00;;;;;37.18;24.83;99401.66;6318615;20;2740883;-57
2022/08/06 09:54:48;;;;;;;;;8.00;6.33;;;;;37.16;23.99;99398.28;6316525;20;2750252;-53
2022/08/06 09:57:25;;;;;;;;;10.50;10.50;;;;;37.10;24.40;99400.25;6314339;20;2794051;-51
2022/08/06 10:00:05;;;;;;;;;10.00;10.00;;;;;37.20;24.16;99407.78;6287268;20;3517936;-54
2022/08/06 10:02:42;;;;;;;;;10.00;8.67;;;;;36.78;24.56;99394.75;6315799;20;3489865;-51
2022/08/06 10:05:19;;;;;;;;;9.33;9.33;;;;;36.70;24.34;99392.50;6312023;20;3482615;-54
2022/08/06 10:08:10;;;;;;;;;10.33;10.00;;;;;36.57;24.26;99401.41;6312395;20;3505622;-49
2022/08/06 10:10:50;;;;;;;;;8.67;8.33;;;;;37.54;23.63;99405.34;6291377;20;2746092;-49
2022/08/06 10:13:27;;;;;;;;;8.33;8.33;;;;;37.62;22.83;99405.94;6313028;20;3465917;-54
2022/08/06 10:16:26;;;;;;;;;9.67;9.67;;;;;37.19;23.59;99400.53;6311717;20;3493032;-51
2022/08/06 10:23:54;;;;;;;;;11.33;11.33;;;;;36.87;23.88;99393.13;6296280;20;3531590;-58
2022/08/06 10:26:32;;;;;;;;;9.67;9.67;;;;;36.55;23.72;99386.84;6316604;20;3492023;-52
2022/08/06 10:29:07;;;;;;;;;8.00;8.00;;;;;36.97;23.64;99394.25;6311864;20;2752333;-52
2022/08/06 10:31:37;;;;;;;;;7.33;7.33;;;;;37.21;23.28;99386.25;6317335;20;2750384;-52
2022/08/06 10:34:26;;;;;;;;;14.67;11.33;;;;;38.12;22.72;99393.84;6316630;20;3516896;-52
2022/08/06 10:37:07;;;;;;;;;10.67;9.67;;;;;37.40;23.01;99387.41;6298009;20;3507547;-52
2022/08/06 10:40:00;;;;;;;;;10.00;10.00;;;;;38.03;22.35;99395.56;6281410;20;2483614;-53
2022/08/06 10:42:39;;;;;;;;;9.67;9.00;;;;;37.71;22.05;99393.88;6313614;20;2760795;-54
2022/08/06 10:45:11;;;;;;;;;12.00;10.00;;;;;37.67;22.17;99401.16;6313594;20;3507533;-56
2022/08/06 10:47:47;;;;;;;;;10.00;10.00;;;;;37.65;22.50;99397.78;6315354;20;2783741;-56
2022/08/06 10:50:38;;;;;;;;;14.67;12.00;;;;;37.67;22.47;99389.13;6311703;20;3510876;-54
2022/08/06 10:53:22;;;;;;;;;10.00;10.00;;;;;38.03;21.61;99389.97;6277950;20;3509764;-53
2022/08/06 10:56:15;;;;;;;;;10.00;10.00;;;;;38.27;22.31;99392.16;6309847;20;2483598;-52
2022/08/06 10:58:55;;;;;;;;;12.00;10.33;;;;;38.01;21.92;99382.97;6318944;20;3505423;-58
2022/08/06 11:02:15;;;;;;;;;11.33;10.33;;;;;38.09;21.91;99390.78;6312756;20;3507651;-57
2022/08/06 11:04:55;;;;;;;;;9.00;9.00;;;;;37.92;22.01;99382.66;6313154;20;3465840;-57
2022/08/06 11:08:09;;;;;;;;;11.33;10.00;;;;;37.66;22.02;99382.69;6316505;20;3507636;-59
2022/08/06 11:11:16;;;;;;;;;10.00;10.00;;;;;37.19;21.90;99366.09;6315686;20;3514306;-59
2022/08/06 11:13:51;;;;;;;;;9.67;9.67;;;;;37.89;22.02;99377.59;6316121;20;3489013;-58
2022/08/06 11:16:27;;;;;;;;;13.00;10.00;;;;;37.35;22.30;99371.41;6319863;20;3508576;-59
2022/08/06 11:19:09;;;;;;;;;13.00;10.00;;;;;37.81;22.11;99372.56;6317950;20;2786727;-57
2022/08/06 11:21:47;;;;;;;;;9.67;9.67;;;;;36.90;22.54;99364.59;6318091;20;2777521;-57
2022/08/06 11:24:31;;;;;;;;;7.67;7.67;;;;;37.51;21.98;99368.66;6324911;20;2748204;-59
2022/08/06 11:27:47;;;;;;;;;9.33;9.33;;;;;37.53;21.83;99367.25;6317198;20;2765991;-58
2022/08/06 11:30:21;;;;;;;;;8.33;8.00;;;;;37.81;21.67;99366.97;6316844;20;3466072;-58
2022/08/06 11:32:54;;;;;;;;;11.00;11.00;;;;;37.62;22.33;99361.94;6314775;20;3521167;-54
2022/08/06 11:35:34;;;;;;;;;11.00;10.00;;;;;37.78;22.29;99355.19;6317902;20;3506600;-58
2022/08/06 11:38:46;;;;;;;;;11.33;9.67;;;;;37.57;21.92;99345.13;6317466;20;3497143;-57
2022/08/06 11:41:32;;;;;;;;;5.00;5.00;;;;;37.06;22.44;99342.28;6317401;20;3463819;-58
2022/08/06 11:44:25;;;;;;;;;11.00;10.00;;;;;37.04;23.38;99339.72;6317798;20;3512979;-58
2022/08/06 11:47:14;;;;;;;;;11.00;11.00;;;;;36.80;23.43;99347.78;6290860;20;3510629;-54
2022/08/06 11:49:47;;;;;;;;;11.00;9.33;;;;;36.50;23.99;99347.66;6321558;20;3506471;-60
2022/08/06 11:52:40;;;;;;;;;12.67;10.67;;;;;36.52;23.53;99348.19;6316062;20;3513759;-60
2022/08/06 11:55:14;;;;;;;;;9.67;9.67;;;;;36.88;23.59;99338.00;6283903;20;3486736;-60
2022/08/06 11:58:15;;;;;;;;;11.00;9.00;;;;;36.55;23.88;99344.88;6288296;20;3485746;-61
2022/08/06 12:01:01;;;;;;;;;10.33;9.67;;;;;35.96;23.94;99335.56;6317274;20;3503351;-56
2022/08/06 12:03:50;;;;;;;;;10.00;10.00;;;;;35.98;24.66;99335.31;6321664;20;2777483;-55
2022/08/06 12:06:25;;;;;;;;;11.00;11.00;;;;;36.65;23.13;99337.38;6315879;20;3509686;-58
2022/08/06 12:09:18;;;;;;;;;9.00;9.00;;;;;37.63;22.85;99338.41;6324041;20;2749233;-54
2022/08/06 12:12:24;;;;;;;;;13.00;12.00;;;;;37.47;22.94;99339.47;6319399;20;3530657;-51
2022/08/06 12:14:57;;;;;;;;;11.33;11.33;;;;;37.79;22.74;99353.25;6318917;20;3508598;-54
2022/08/06 12:17:33;;;;;;;;;3.00;3.00;;;;;38.29;21.72;99339.44;6317331;20;2739878;-55
2022/08/06 12:20:40;;;;;;;;;16.00;13.00;;;;;38.02;22.62;99328.56;6316116;20;2791946;-57
2022/08/06 12:23:21;;;;;;;;;11.00;11.00;;;;;37.88;22.03;99331.09;6283749;20;3526379;-57
2022/08/06 12:25:58;;;;;;;;;13.67;11.00;;;;;37.86;21.94;99330.53;6314104;20;3503478;-59